createdAt,value
2022-10-17T00:00:39.985Z,9.40
2022-10-17T00:06:06.744Z,10.60
2022-10-17T00:11:17.834Z,10.80
2022-10-17T00:16:32.308Z,10.00
2022-10-17T00:21:34.184Z,11.80
2022-10-17T00:26:36.165Z,12.20
2022-10-17T00:31:37.985Z,8.10
2022-10-17T00:36:39.919Z,8.20
2022-10-17T00:41:41.795Z,8.60
2022-10-17T00:46:43.673Z,8.80
2022-10-17T00:51:58.759Z,8.70
2022-10-17T00:57:01.253Z,8.00
2022-10-17T01:02:06.406Z,8.20
2022-10-17T01:07:09.511Z,9.10
2022-10-17T01:12:14.154Z,7.90
2022-10-17T01:17:25.043Z,8.70
2022-10-17T01:22:36.854Z,8.90
2022-10-17T01:27:51.325Z,7.80
2022-10-17T01:33:21.364Z,8.70
2022-10-17T01:38:31.739Z,7.90
2022-10-17T01:43:59.434Z,7.20
2022-10-17T01:49:04.472Z,9.70
2022-10-17T01:54:12.596Z,12.20
2022-10-17T01:59:19.593Z,13.40
2022-10-17T02:04:22.084Z,13.90
2022-10-17T02:09:26.420Z,16.90
2022-10-17T02:14:47.035Z,12.70
2022-10-17T02:20:30.386Z,22.70
2022-10-17T02:25:44.347Z,37.40
2022-10-17T02:30:57.795Z,14.90
2022-10-17T02:36:07.046Z,11.90
2022-10-17T02:41:12.313Z,10.00
2022-10-17T02:46:22.677Z,9.70
2022-10-17T02:51:59.475Z,9.60
2022-10-17T02:57:10.160Z,9.90
2022-10-17T03:02:12.343Z,9.30
2022-10-17T03:07:14.218Z,9.80
2022-10-17T03:12:15.995Z,9.40
2022-10-17T03:17:17.870Z,9.20
2022-10-17T03:22:19.750Z,10.40
2022-10-17T03:27:21.627Z,10.40
2022-10-17T03:32:23.501Z,9.90
2022-10-17T03:37:25.485Z,10.00
2022-10-17T03:42:27.361Z,10.40
2022-10-17T03:47:29.518Z,9.50
2022-10-17T03:52:31.526Z,10.50
2022-10-17T03:57:35.763Z,9.50
2022-10-17T04:07:39.306Z,9.40
2022-10-17T04:12:41.287Z,8.10
2022-10-17T04:17:43.162Z,10.90
2022-10-17T04:22:45.040Z,24.60
2022-10-17T04:27:48.554Z,21.20
2022-10-17T04:32:50.535Z,27.40
2022-10-17T04:37:52.410Z,28.10
2022-10-17T04:42:54.289Z,24.30
2022-10-17T04:47:56.985Z,20.70
2022-10-17T04:52:59.581Z,14.60
2022-10-17T04:58:01.455Z,15.30
2022-10-17T05:03:03.537Z,15.50
2022-10-17T05:08:06.388Z,10.30
2022-10-17T05:13:09.652Z,8.80
2022-10-17T05:18:11.661Z,8.60
2022-10-17T05:23:13.503Z,8.40
2022-10-17T05:28:15.382Z,7.50
2022-10-17T05:33:17.259Z,7.80
2022-10-17T05:38:19.136Z,7.70
2022-10-17T05:43:21.118Z,9.30
2022-10-17T05:48:23.721Z,10.00
2022-10-17T05:53:25.892Z,9.60
2022-10-17T06:03:50.543Z,15.20
2022-10-17T06:08:52.517Z,13.20
2022-10-17T06:13:54.598Z,11.40
2022-10-17T06:18:56.478Z,11.60
2022-10-17T06:23:58.355Z,12.00
2022-10-17T06:29:00.390Z,12.30
2022-10-17T06:34:02.321Z,12.80
2022-10-17T06:39:04.191Z,9.40
2022-10-17T06:44:10.801Z,8.00
2022-10-17T06:49:12.757Z,7.40
2022-10-17T06:54:14.940Z,5.90
2022-10-17T06:59:16.921Z,6.90
2022-10-17T07:04:19.309Z,6.80
2022-10-17T07:09:22.421Z,8.30
2022-10-17T07:14:31.358Z,6.60
2022-10-17T07:19:33.236Z,6.50
2022-10-17T07:24:35.319Z,7.30
2022-10-17T07:29:37.400Z,8.50
2022-10-17T07:34:39.279Z,8.00
2022-10-17T07:39:41.163Z,8.50
2022-10-17T07:44:45.694Z,7.60
2022-10-17T07:49:47.569Z,7.30
2022-10-17T07:54:49.857Z,7.70
2022-10-17T07:59:52.655Z,9.30
2022-10-17T08:04:54.739Z,7.60
2022-10-17T08:09:56.947Z,7.40
2022-10-17T08:14:59.004Z,8.60
2022-10-17T08:20:00.984Z,7.70
2022-10-17T08:25:02.970Z,5.40
2022-10-17T08:30:05.354Z,5.70
2022-10-17T08:35:07.843Z,5.40
2022-10-17T08:40:20.575Z,4.50
2022-10-17T08:45:48.973Z,4.80
2022-10-17T08:50:55.765Z,4.30
2022-10-17T08:56:04.576Z,3.60
2022-10-17T09:01:36.804Z,4.20
2022-10-17T09:06:53.418Z,4.40
2022-10-17T09:12:18.641Z,4.20
2022-10-17T09:17:38.848Z,3.70
2022-10-17T09:23:06.839Z,3.00
2022-10-17T09:28:30.364Z,3.10
2022-10-17T09:33:59.450Z,3.60
2022-10-17T09:39:11.964Z,2.90
2022-10-17T09:44:22.090Z,5.80
2022-10-17T09:49:36.197Z,2.00
2022-10-17T09:54:53.695Z,1.50
2022-10-17T10:00:02.482Z,2.00
2022-10-17T10:05:20.991Z,1.80
2022-10-17T10:10:27.853Z,2.30
2022-10-17T10:15:37.353Z,1.80
2022-10-17T10:20:40.301Z,1.30
2022-10-17T10:25:55.905Z,1.50
2022-10-17T10:31:02.078Z,1.90
2022-10-17T10:36:07.406Z,1.60
2022-10-17T10:41:11.361Z,2.10
2022-10-17T10:46:31.465Z,2.30
2022-10-17T10:51:52.080Z,1.40
2022-10-17T10:56:57.852Z,1.80
2022-10-17T11:01:59.757Z,1.80
2022-10-17T11:07:11.230Z,1.70
2022-10-17T11:12:25.808Z,1.70
2022-10-17T11:17:49.493Z,1.60
2022-10-17T11:22:57.412Z,1.80
2022-10-17T11:28:04.660Z,1.90
2022-10-17T11:33:12.123Z,2.40
2022-10-17T11:38:20.861Z,2.00
2022-10-17T11:43:32.059Z,1.90
2022-10-17T11:48:45.608Z,2.10
2022-10-17T11:59:15.477Z,2.20
2022-10-17T12:04:29.986Z,2.50
2022-10-17T12:09:45.754Z,2.50
2022-10-17T12:14:48.038Z,2.60
2022-10-17T12:19:49.916Z,2.80
2022-10-17T12:24:58.187Z,2.90
2022-10-17T12:30:24.495Z,3.30
2022-10-17T12:35:28.111Z,3.30
2022-10-17T12:40:36.134Z,5.00
2022-10-17T12:45:45.895Z,4.50
2022-10-17T12:56:45.683Z,5.10
2022-10-17T13:01:52.913Z,5.20
2022-10-17T13:06:58.682Z,5.40
2022-10-17T13:12:04.496Z,4.90
2022-10-17T13:17:22.666Z,5.80
2022-10-17T13:22:28.938Z,5.70
2022-10-17T13:27:33.993Z,6.40
2022-10-17T13:32:38.942Z,5.90
2022-10-17T13:37:43.381Z,6.10
2022-10-17T13:42:46.587Z,6.10
2022-10-17T13:53:15.535Z,5.90
2022-10-17T13:58:18.536Z,6.00
2022-10-17T14:03:31.828Z,5.90
2022-10-17T14:48:23.230Z,8.30
2022-10-17T14:53:30.221Z,9.00
2022-10-17T14:58:34.129Z,9.80
2022-10-17T15:03:37.426Z,9.70
2022-10-17T15:08:40.722Z,9.70
2022-10-17T15:18:49.826Z,10.90
2022-10-17T15:23:53.240Z,11.00
2022-10-17T15:33:59.657Z,13.20
2022-10-17T15:39:03.583Z,12.60
2022-10-17T15:44:06.997Z,12.70
2022-10-17T15:49:13.815Z,14.50
2022-10-17T15:54:17.000Z,13.70
2022-10-17T15:59:24.606Z,15.00
2022-10-17T16:04:29.453Z,13.60
2022-10-17T16:09:33.688Z,14.70
2022-10-17T16:14:36.794Z,15.90
2022-10-17T16:19:40.105Z,15.00
2022-10-17T16:24:43.210Z,14.70
2022-10-17T16:29:46.317Z,14.80
2022-10-17T16:34:49.524Z,15.50
2022-10-17T16:39:53.966Z,17.10
2022-10-17T16:44:57.174Z,14.70
2022-10-17T16:50:00.480Z,15.40
2022-10-17T16:55:03.791Z,15.20
2022-10-17T17:00:08.233Z,13.30
2022-10-17T17:05:11.964Z,15.60
2022-10-17T17:10:15.260Z,14.90
2022-10-17T17:15:18.467Z,15.20
2022-10-17T17:20:21.579Z,15.90
2022-10-17T17:25:25.088Z,14.80
2022-10-17T17:30:29.937Z,14.10
2022-10-17T17:35:33.044Z,14.00
2022-10-17T17:40:36.351Z,12.00
2022-10-17T17:45:39.868Z,13.80
2022-10-17T17:50:44.479Z,13.60
2022-10-17T17:55:47.719Z,12.40
2022-10-17T18:00:50.944Z,13.40
2022-10-17T18:05:54.552Z,14.10
2022-10-17T18:10:58.982Z,13.50
2022-10-17T18:16:03.009Z,12.60
2022-10-17T18:21:06.629Z,13.80
2022-10-17T18:26:10.862Z,13.00
2022-10-17T18:31:19.163Z,12.20
2022-10-17T18:36:22.910Z,12.70
2022-10-17T18:41:27.142Z,12.90
2022-10-17T18:46:36.296Z,12.90
2022-10-17T18:51:40.729Z,13.20
2022-10-17T18:56:45.197Z,12.40
2022-10-17T19:01:48.569Z,13.00
2022-10-17T19:06:51.991Z,13.80
2022-10-17T19:11:55.608Z,12.20
2022-10-17T19:17:00.151Z,13.50
2022-10-17T19:22:03.869Z,14.00
2022-10-17T19:27:07.181Z,13.40
2022-10-17T19:32:15.725Z,13.50
2022-10-17T19:37:21.383Z,12.70
2022-10-17T19:42:24.587Z,14.30
2022-10-17T19:47:27.897Z,13.40
2022-10-17T19:52:31.271Z,11.70
2022-10-17T19:57:36.671Z,12.60
2022-10-17T20:02:39.879Z,12.50
2022-10-17T20:07:43.086Z,11.80
2022-10-17T20:12:46.603Z,11.90
2022-10-17T21:03:17.765Z,10.90
2022-10-17T21:08:19.642Z,10.90
2022-10-17T21:13:21.522Z,12.40
2022-10-17T21:18:23.400Z,11.40
2022-10-17T21:23:25.281Z,11.60
2022-10-17T21:28:27.173Z,12.50
2022-10-17T21:33:29.026Z,12.40
2022-10-17T21:38:31.109Z,11.50
2022-10-17T21:43:34.216Z,11.90
2022-10-17T21:48:35.996Z,12.10
2022-10-17T21:53:38.276Z,12.30
2022-10-17T21:58:40.878Z,12.60
2022-10-17T22:03:46.729Z,12.10
2022-10-17T22:08:49.338Z,12.00
2022-10-17T22:14:00.752Z,12.60
2022-10-17T22:19:06.468Z,10.90
2022-10-17T22:24:12.339Z,13.10
2022-10-17T22:29:15.281Z,13.30
2022-10-17T22:34:18.190Z,12.00
2022-10-17T22:39:20.058Z,12.50
2022-10-17T22:44:21.871Z,12.50
2022-10-17T22:49:23.707Z,14.40
2022-10-17T22:54:25.583Z,11.60
2022-10-17T22:59:27.461Z,12.90
2022-10-17T23:04:29.339Z,13.80
2022-10-17T23:09:31.217Z,13.10
2022-10-17T23:14:36.965Z,12.40
2022-10-17T23:19:39.782Z,12.40
2022-10-17T23:24:41.558Z,13.20
2022-10-17T23:29:43.435Z,13.20
2022-10-17T23:34:45.313Z,13.80
2022-10-17T23:39:47.292Z,12.60
2022-10-17T23:44:49.273Z,14.00
2022-10-17T23:49:51.155Z,13.00
2022-10-17T23:54:53.742Z,13.80
2022-10-17T23:59:55.727Z,14.20
